首页
METAR-TAF:

METAR-TAF

机场 :

埃尔多拉多国际机场

波哥大, 哥伦比亚

纬度: 04-43N, 经度: 074-09W, 海拔: 2547米

当前天气观测

该预报发布于32分钟前的01:00 UTC
风速3节,风向西,在西南西转西北之间变化
温度 16°C
湿度 88%
气压 1026 hPa
能見度: 6000
散云层高于2000英尺

METAR: SKBO 160100Z 26003KT 230V300 6000 SCT020 16/14 Q1026 RMK HZ

时间: 20:32 (01:32 UTC)

预报

该预报发布于3小时和2分钟前的22:30 UTC
预报有效从16日的 00点(UTC)到 16日的 24点(UTC)
风速12节,风向西转西北
能見度: 5000
散云层高于2000英尺
毛毛雨
成为
从 16日的 01点(UTC)到 16日的 03点(UTC)
风速2节,风向多变
能见度10公里或以上
短暂存在
从 16日的 09点(UTC)到 16日的 12点(UTC)
能見度: 2000
碎片雾
成为
从 16日的 15点(UTC)到 16日的 17点(UTC)
风速12节,风向西转西北
短暂存在
从 16日的 19点(UTC)到 16日的 22点(UTC)
散云层高于1700英尺, 塔状积云.
毛毛雨,

TAF: SKBO 152230Z 1600/1624 29012KT 5000 DZ SCT020 BECMG 1601/1603 VRB02KT 9999 NSW TEMPO 1609/1612 2000 BCFG BECMG 1615/1617 30012KT TEMPO 1619/1622 DZ SCT017TCU TX24/1619Z TN07/1611Z

超过4000个机场的气象观测和天气预报(METAR&TAF报告)。

可查询的气象台以黄色和红色小点在地图上表示。

将鼠标移到小点上方,可查看气象台名称。

然后点击查看天气观测和预报。

如需切换地图:点击带黑十字的绿色按钮放大地图;点击带横线的绿色按钮缩小地图;或者点击绿色箭头查看邻近地区的地图。


METAR-TAF: